createdAt,value
2019-05-15T00:00:34.917Z,0.00
2019-05-15T00:01:34.897Z,0.00
2019-05-15T00:02:34.896Z,0.00
2019-05-15T00:03:34.915Z,0.00
2019-05-15T00:04:34.875Z,0.00
2019-05-15T00:05:34.865Z,0.00
2019-05-15T00:06:34.855Z,0.00
2019-05-15T00:07:34.844Z,0.00
2019-05-15T00:08:34.843Z,0.00
2019-05-15T00:09:34.824Z,0.00
2019-05-15T00:10:34.811Z,0.00
2019-05-15T00:11:34.793Z,0.00
2019-05-15T00:12:34.801Z,0.00
2019-05-15T00:13:34.773Z,0.00
2019-05-15T00:14:34.791Z,0.00
2019-05-15T00:15:34.751Z,0.00
2019-05-15T00:16:34.742Z,0.00
2019-05-15T00:17:34.739Z,0.00
2019-05-15T00:18:34.719Z,0.00
2019-05-15T00:19:34.718Z,0.00
2019-05-15T00:20:34.700Z,0.00
2019-05-15T00:21:34.694Z,0.00
2019-05-15T00:22:34.680Z,0.00
2019-05-15T00:23:34.667Z,0.00
2019-05-15T00:24:34.667Z,0.00
2019-05-15T00:25:34.645Z,0.00
2019-05-15T00:26:34.634Z,0.00
2019-05-15T00:27:34.636Z,0.00
2019-05-15T00:28:34.617Z,0.00
2019-05-15T00:29:34.615Z,0.00
2019-05-15T00:30:34.595Z,0.00
2019-05-15T00:31:34.587Z,0.00
2019-05-15T00:32:34.574Z,0.00
2019-05-15T00:33:34.563Z,0.00
2019-05-15T00:34:34.552Z,0.00
2019-05-15T00:35:34.543Z,0.00
2019-05-15T00:36:34.525Z,0.00
2019-05-15T00:37:34.496Z,0.00
2019-05-15T00:38:34.485Z,0.00
2019-05-15T00:39:34.475Z,0.00
2019-05-15T00:40:34.474Z,0.00
2019-05-15T00:41:47.565Z,0.00
2019-05-15T00:42:35.443Z,0.00
2019-05-15T00:43:34.446Z,0.00
2019-05-15T00:44:34.433Z,0.00
2019-05-15T00:45:34.413Z,0.00
2019-05-15T00:46:34.401Z,0.00
2019-05-15T00:47:34.402Z,0.00
2019-05-15T00:48:34.382Z,0.00
2019-05-15T00:49:34.373Z,0.00
2019-05-15T00:50:34.351Z,0.00
2019-05-15T00:51:34.340Z,0.00
2019-05-15T00:52:34.340Z,0.00
2019-05-15T00:53:34.319Z,0.00
2019-05-15T00:54:34.310Z,0.00
2019-05-15T00:55:34.300Z,0.00
2019-05-15T00:56:34.289Z,0.00
2019-05-15T00:57:34.308Z,0.00
2019-05-15T00:58:34.287Z,0.00
2019-05-15T00:59:34.258Z,0.00
2019-05-15T01:00:34.247Z,0.00
2019-05-15T01:01:34.245Z,0.00
2019-05-15T01:02:34.237Z,0.00
2019-05-15T01:03:34.216Z,0.00
2019-05-15T01:04:34.207Z,0.00
2019-05-15T01:05:34.195Z,0.00
2019-05-15T01:06:34.195Z,0.00
2019-05-15T01:07:34.174Z,0.00
2019-05-15T01:08:34.173Z,0.00
2019-05-15T01:09:34.153Z,0.00
2019-05-15T01:10:34.143Z,0.00
2019-05-15T01:11:34.123Z,0.00
2019-05-15T01:12:34.125Z,0.00
2019-05-15T01:13:34.121Z,0.00
2019-05-15T01:14:34.102Z,0.00
2019-05-15T01:15:34.091Z,0.00
2019-05-15T01:16:34.079Z,0.00
2019-05-15T01:17:34.080Z,0.00
2019-05-15T01:18:34.059Z,0.00
2019-05-15T01:19:34.039Z,0.00
2019-05-15T01:20:34.038Z,0.00
2019-05-15T01:21:34.034Z,0.00
2019-05-15T01:22:34.017Z,0.00
2019-05-15T01:23:33.998Z,0.00
2019-05-15T01:24:34.007Z,0.00
2019-05-15T01:25:33.978Z,0.00
2019-05-15T01:26:33.976Z,0.00
2019-05-15T01:27:33.956Z,0.00
2019-05-15T01:28:33.945Z,0.00
2019-05-15T01:29:41.957Z,0.00
2019-05-15T01:30:34.924Z,0.00
2019-05-15T01:31:33.924Z,0.00
2019-05-15T01:32:33.905Z,0.00
2019-05-15T01:33:33.893Z,0.00
2019-05-15T01:34:33.909Z,0.00
2019-05-15T01:35:34.031Z,0.00
2019-05-15T01:36:33.862Z,0.00
2019-05-15T01:37:33.851Z,0.00
2019-05-15T01:38:33.844Z,0.00
2019-05-15T01:39:33.841Z,0.00
2019-05-15T01:40:33.820Z,0.00
2019-05-15T01:41:33.801Z,0.00
2019-05-15T01:42:33.799Z,0.00
2019-05-15T01:43:33.782Z,0.00
2019-05-15T01:44:33.782Z,0.00
2019-05-15T01:45:33.770Z,0.00
2019-05-15T01:46:33.747Z,0.00
2019-05-15T01:47:33.752Z,0.00
2019-05-15T01:48:33.735Z,0.00
2019-05-15T01:49:33.726Z,0.00
2019-05-15T01:50:33.706Z,0.00
2019-05-15T01:51:33.695Z,0.00
2019-05-15T01:52:33.695Z,0.00
2019-05-15T01:53:33.685Z,0.00
2019-05-15T01:54:33.675Z,0.00
2019-05-15T01:55:33.654Z,0.00
2019-05-15T01:56:33.647Z,0.00
2019-05-15T01:57:33.633Z,0.00
2019-05-15T01:58:33.642Z,0.00
2019-05-15T01:59:33.665Z,0.00
2019-05-15T02:00:33.612Z,0.00
2019-05-15T02:01:33.601Z,0.00
2019-05-15T02:02:33.582Z,0.00
2019-05-15T02:03:33.561Z,0.00
2019-05-15T02:04:33.560Z,0.00
2019-05-15T02:05:33.550Z,0.00
2019-05-15T02:06:33.549Z,0.00
2019-05-15T02:07:33.529Z,0.00
2019-05-15T02:08:33.528Z,0.00
2019-05-15T02:09:33.509Z,0.00
2019-05-15T02:10:33.544Z,0.00
2019-05-15T02:11:33.488Z,0.00
2019-05-15T02:12:33.542Z,0.00
2019-05-15T02:13:33.467Z,0.00
2019-05-15T02:14:33.478Z,0.00
2019-05-15T02:15:33.476Z,0.00
2019-05-15T02:16:33.435Z,0.00
2019-05-15T02:17:33.416Z,0.00
2019-05-15T02:18:33.424Z,0.00
2019-05-15T02:19:33.394Z,0.00
2019-05-15T02:20:33.393Z,0.00
2019-05-15T02:21:33.373Z,0.00
2019-05-15T02:22:33.371Z,0.00
2019-05-15T02:23:33.362Z,0.00
2019-05-15T02:24:33.344Z,0.00
2019-05-15T02:25:33.332Z,0.00
2019-05-15T02:26:33.321Z,0.00
2019-05-15T02:27:33.811Z,0.00
2019-05-15T02:28:33.309Z,0.00
2019-05-15T02:29:33.291Z,0.00
2019-05-15T02:30:34.342Z,0.00
2019-05-15T02:31:33.270Z,0.00
2019-05-15T02:32:33.261Z,0.00
2019-05-15T02:33:33.261Z,0.00
2019-05-15T02:34:33.244Z,0.00
2019-05-15T02:35:33.240Z,0.00
2019-05-15T02:36:33.236Z,0.00
2019-05-15T02:37:33.206Z,0.00
2019-05-15T02:38:33.197Z,0.00
2019-05-15T02:39:33.187Z,0.00
2019-05-15T02:40:33.167Z,0.00
2019-05-15T02:41:33.192Z,0.00
2019-05-15T02:42:33.155Z,0.00
2019-05-15T02:43:33.155Z,0.00
2019-05-15T02:44:33.135Z,0.00
2019-05-15T02:45:36.659Z,0.00
2019-05-15T02:46:34.113Z,0.00
2019-05-15T02:47:33.112Z,0.00
2019-05-15T02:48:33.093Z,0.00
2019-05-15T02:49:33.102Z,0.00
2019-05-15T02:50:33.064Z,0.00
2019-05-15T02:51:33.062Z,0.00
2019-05-15T02:52:33.054Z,0.00
2019-05-15T02:53:33.053Z,0.00
2019-05-15T02:54:33.029Z,0.00
2019-05-15T02:55:33.019Z,0.00
2019-05-15T02:56:33.009Z,0.00
2019-05-15T02:57:32.994Z,0.00
2019-05-15T02:58:32.988Z,0.00
2019-05-15T02:59:32.969Z,0.00
2019-05-15T03:00:44.049Z,0.00
2019-05-15T03:01:34.409Z,0.00
2019-05-15T03:02:32.947Z,0.00
2019-05-15T03:03:32.927Z,0.00
2019-05-15T03:04:32.966Z,0.00
2019-05-15T03:05:32.943Z,0.00
2019-05-15T03:06:32.912Z,0.00
2019-05-15T03:07:32.896Z,0.00
2019-05-15T03:08:32.874Z,0.00
2019-05-15T03:09:32.863Z,0.00
2019-05-15T03:10:32.864Z,0.00
2019-05-15T03:11:32.853Z,0.00
2019-05-15T03:12:32.833Z,0.00
2019-05-15T03:13:32.831Z,0.00
2019-05-15T03:14:32.818Z,0.00
2019-05-15T03:15:32.801Z,0.00
2019-05-15T03:16:32.800Z,0.00
2019-05-15T03:17:32.780Z,0.00
2019-05-15T03:18:32.771Z,0.00
2019-05-15T03:19:32.759Z,0.00
2019-05-15T03:20:32.739Z,0.00
2019-05-15T03:21:33.363Z,0.00
2019-05-15T03:22:32.727Z,0.00
2019-05-15T03:23:32.720Z,0.00
2019-05-15T03:24:32.708Z,0.00
2019-05-15T03:25:32.698Z,0.00
2019-05-15T03:26:32.695Z,0.00
2019-05-15T03:27:34.756Z,0.00
2019-05-15T03:28:32.666Z,0.00
2019-05-15T03:29:32.645Z,0.00
2019-05-15T03:31:04.824Z,0.00
2019-05-15T03:31:49.037Z,0.00
2019-05-15T03:32:42.465Z,0.00
2019-05-15T03:33:36.679Z,0.00
2019-05-15T03:34:38.448Z,0.00
2019-05-15T03:35:33.591Z,0.00
2019-05-15T03:36:32.583Z,0.00
2019-05-15T03:37:34.134Z,5.62
2019-05-15T03:38:32.576Z,5.62
2019-05-15T03:39:32.552Z,5.62
2019-05-15T03:40:32.542Z,5.62
2019-05-15T03:41:32.519Z,5.62
2019-05-15T03:42:32.512Z,5.62
2019-05-15T03:43:33.526Z,5.62
2019-05-15T03:44:32.503Z,5.62
2019-05-15T03:45:32.478Z,5.62
2019-05-15T03:46:32.466Z,11.25
2019-05-15T03:47:32.458Z,11.25
2019-05-15T03:48:32.454Z,11.25
2019-05-15T03:49:32.441Z,11.25
2019-05-15T03:50:32.425Z,11.25
2019-05-15T03:51:32.414Z,16.88
2019-05-15T03:52:32.399Z,16.88
2019-05-15T03:53:32.416Z,16.88
2019-05-15T03:54:32.383Z,16.88
2019-05-15T03:55:32.397Z,22.50
2019-05-15T03:56:32.380Z,22.50
2019-05-15T03:57:32.352Z,22.50
2019-05-15T03:58:32.352Z,22.50
2019-05-15T03:59:32.332Z,22.50
2019-05-15T04:00:32.312Z,22.50
2019-05-15T04:01:38.446Z,28.12
2019-05-15T04:02:33.295Z,28.12
2019-05-15T04:03:32.291Z,28.12
2019-05-15T04:04:32.289Z,28.12
2019-05-15T04:05:32.262Z,28.12
2019-05-15T04:06:32.252Z,33.75
2019-05-15T04:07:32.239Z,33.75
2019-05-15T04:08:32.257Z,33.75
2019-05-15T04:09:32.229Z,33.75
2019-05-15T04:10:32.222Z,39.38
2019-05-15T04:11:32.249Z,39.38
2019-05-15T04:12:32.188Z,39.38
2019-05-15T04:13:32.257Z,39.38
2019-05-15T04:14:32.178Z,45.00
2019-05-15T04:15:32.202Z,45.00
2019-05-15T04:16:32.145Z,45.00
2019-05-15T04:17:32.138Z,50.62
2019-05-15T04:18:32.146Z,50.62
2019-05-15T04:19:32.124Z,50.62
2019-05-15T04:20:32.104Z,56.25
2019-05-15T04:21:32.097Z,56.25
2019-05-15T04:22:32.083Z,61.88
2019-05-15T04:23:32.091Z,61.88
2019-05-15T04:24:32.060Z,67.50
2019-05-15T04:25:32.051Z,73.12
2019-05-15T04:26:32.041Z,84.38
2019-05-15T04:27:32.032Z,90.00
2019-05-15T04:28:32.046Z,90.00
2019-05-15T04:29:32.009Z,95.62
2019-05-15T04:30:31.999Z,95.62
2019-05-15T04:31:50.791Z,90.00
2019-05-15T04:32:32.987Z,90.00
2019-05-15T04:33:31.980Z,90.00
2019-05-15T04:34:31.950Z,90.00
2019-05-15T04:35:31.947Z,90.00
2019-05-15T04:36:31.946Z,90.00
2019-05-15T04:37:31.926Z,90.00
2019-05-15T04:38:31.929Z,90.00
2019-05-15T04:39:31.896Z,95.62
2019-05-15T04:40:31.886Z,95.62
2019-05-15T04:41:31.892Z,101.25
2019-05-15T04:42:31.875Z,118.12
2019-05-15T04:43:39.657Z,151.88
2019-05-15T04:44:32.849Z,230.62
2019-05-15T04:45:34.903Z,213.75
2019-05-15T04:46:31.833Z,146.25
2019-05-15T04:47:31.813Z,135.00
2019-05-15T04:48:31.812Z,135.00
2019-05-15T04:49:31.796Z,135.00
2019-05-15T04:50:31.789Z,140.62
2019-05-15T04:51:31.790Z,151.88
2019-05-15T04:52:31.763Z,174.38
2019-05-15T04:53:33.144Z,191.25
2019-05-15T04:54:31.739Z,213.75
2019-05-15T04:55:31.729Z,241.88
2019-05-15T04:56:31.726Z,213.75
2019-05-15T04:57:34.056Z,236.25
2019-05-15T04:58:31.709Z,247.50
2019-05-15T05:00:40.617Z,253.12
2019-05-15T05:01:40.643Z,303.75
2019-05-15T05:02:40.856Z,281.25
2019-05-15T05:03:40.581Z,241.88
2019-05-15T05:04:40.573Z,264.38
2019-05-15T05:05:40.559Z,292.50
2019-05-15T05:06:40.561Z,247.50
2019-05-15T05:07:40.542Z,264.38
2019-05-15T05:08:40.532Z,326.25
2019-05-15T05:09:40.512Z,354.38
2019-05-15T05:10:40.500Z,461.25
2019-05-15T05:11:40.490Z,675.00
2019-05-15T05:12:42.676Z,1636.88
2019-05-15T05:13:40.469Z,2058.75
2019-05-15T05:14:40.473Z,1068.75
2019-05-15T05:15:40.459Z,967.50
2019-05-15T05:16:40.438Z,928.12
2019-05-15T05:17:40.448Z,736.88
2019-05-15T05:18:41.546Z,770.62
2019-05-15T05:19:40.430Z,770.62
2019-05-15T05:20:40.396Z,624.38
2019-05-15T05:21:40.387Z,573.75
2019-05-15T05:22:40.406Z,545.62
2019-05-15T05:23:40.365Z,540.00
2019-05-15T05:24:40.355Z,528.75
2019-05-15T05:25:40.337Z,523.12
2019-05-15T05:26:40.333Z,556.88
2019-05-15T05:27:40.342Z,438.75
2019-05-15T05:28:40.337Z,343.12
2019-05-15T05:29:40.315Z,371.25
2019-05-15T05:30:40.304Z,433.12
2019-05-15T05:31:40.288Z,483.75
2019-05-15T05:32:40.283Z,433.12
2019-05-15T05:33:40.260Z,607.50
2019-05-15T05:34:40.251Z,613.12
2019-05-15T05:35:40.241Z,832.50
2019-05-15T05:36:40.230Z,961.88
2019-05-15T05:37:40.217Z,691.88
2019-05-15T05:38:40.258Z,736.88
2019-05-15T05:39:40.189Z,933.75
2019-05-15T05:40:40.203Z,855.00
2019-05-15T05:41:40.191Z,1254.38
2019-05-15T05:42:40.158Z,1805.62
2019-05-15T05:43:40.164Z,1642.50
2019-05-15T05:44:42.674Z,1276.88
2019-05-15T05:45:40.128Z,1215.00
2019-05-15T05:46:40.117Z,1428.75
2019-05-15T05:47:40.116Z,1530.00
2019-05-15T05:48:40.096Z,1698.75
2019-05-15T05:49:40.128Z,1681.88
2019-05-15T05:50:43.677Z,2435.62
2019-05-15T05:51:40.073Z,3003.75
2019-05-15T05:52:40.054Z,3223.12
2019-05-15T05:53:40.044Z,3375.00
2019-05-15T05:54:40.054Z,3386.25
2019-05-15T05:55:40.033Z,3391.88
2019-05-15T05:56:40.014Z,3335.62
2019-05-15T05:57:40.004Z,3290.62
2019-05-15T05:58:40.004Z,3431.25
2019-05-15T05:59:40.003Z,3594.38
2019-05-15T06:00:39.962Z,3526.88
2019-05-15T06:01:43.967Z,3622.50
2019-05-15T06:02:47.604Z,3616.88
2019-05-15T06:03:40.941Z,3600.00
2019-05-15T06:04:39.942Z,3622.50
2019-05-15T06:05:39.913Z,3667.50
2019-05-15T06:06:39.914Z,2913.75
2019-05-15T06:07:39.891Z,1901.25
2019-05-15T06:08:39.892Z,1361.25
2019-05-15T06:09:39.870Z,1243.12
2019-05-15T06:10:39.860Z,961.88
2019-05-15T06:11:39.860Z,860.62
2019-05-15T06:12:39.841Z,804.38
2019-05-15T06:13:39.829Z,883.12
2019-05-15T06:14:39.819Z,815.62
2019-05-15T06:15:39.830Z,826.88
2019-05-15T06:16:39.817Z,838.12
2019-05-15T06:17:39.792Z,888.75
2019-05-15T06:18:39.790Z,1035.00
2019-05-15T06:19:39.767Z,945.00
2019-05-15T06:20:39.787Z,933.75
2019-05-15T06:21:53.824Z,967.50
2019-05-15T06:22:40.740Z,945.00
2019-05-15T06:23:45.694Z,1490.62
2019-05-15T06:24:40.726Z,1597.50
2019-05-15T06:25:39.714Z,2053.12
2019-05-15T06:26:39.685Z,1895.62
2019-05-15T06:27:39.677Z,2626.88
2019-05-15T06:28:39.769Z,3060.00
2019-05-15T06:29:39.658Z,3166.88
2019-05-15T06:30:39.645Z,4241.25
2019-05-15T06:31:39.675Z,3723.75
2019-05-15T06:32:40.156Z,2745.00
2019-05-15T06:33:40.434Z,2491.88
2019-05-15T06:34:39.613Z,3240.00
2019-05-15T06:35:39.610Z,4173.75
2019-05-15T06:36:39.623Z,4320.00
2019-05-15T06:37:39.913Z,4235.62
2019-05-15T06:38:39.615Z,4190.62
2019-05-15T06:39:39.542Z,4241.25
2019-05-15T06:41:55.323Z,4201.88
2019-05-15T06:42:55.312Z,4308.75
2019-05-15T06:43:55.333Z,4297.50
2019-05-15T06:44:55.299Z,4303.12
2019-05-15T06:45:55.289Z,4308.75
2019-05-15T06:46:55.320Z,4325.62
2019-05-15T06:47:55.289Z,4381.88
2019-05-15T06:48:55.260Z,4297.50
2019-05-15T06:49:55.257Z,4460.62
2019-05-15T06:50:55.247Z,4539.38
2019-05-15T06:51:55.229Z,4466.25
2019-05-15T06:52:55.208Z,4511.25
2019-05-15T06:53:55.199Z,4674.38
2019-05-15T06:54:55.208Z,4702.50
2019-05-15T06:55:55.188Z,4595.62
2019-05-15T06:56:55.178Z,4516.88
2019-05-15T06:57:55.176Z,4342.50
2019-05-15T06:58:55.147Z,4263.75
2019-05-15T06:59:55.148Z,4438.12
2019-05-15T07:00:55.141Z,4657.50
2019-05-15T07:01:55.117Z,4657.50
2019-05-15T07:02:55.127Z,4691.25
2019-05-15T07:03:55.114Z,4753.12
2019-05-15T07:04:55.107Z,4595.62
2019-05-15T07:05:55.096Z,4443.75
2019-05-15T07:06:55.523Z,4539.38
2019-05-15T07:07:55.077Z,4449.38
2019-05-15T07:08:55.046Z,4590.00
2019-05-15T07:09:55.055Z,4815.00
2019-05-15T07:10:55.037Z,4573.12
2019-05-15T07:11:55.245Z,4606.88
2019-05-15T07:12:55.005Z,4854.38
2019-05-15T07:13:55.005Z,4786.88
2019-05-15T07:14:55.000Z,4871.25
2019-05-15T07:15:54.988Z,4995.00
2019-05-15T07:16:55.004Z,4899.38
2019-05-15T07:17:54.961Z,4809.38
2019-05-15T07:18:54.986Z,4770.00
2019-05-15T07:19:54.935Z,4753.12
2019-05-15T07:20:54.933Z,4758.75
2019-05-15T07:21:54.921Z,4843.12
2019-05-15T07:22:54.909Z,4882.50
2019-05-15T07:23:54.905Z,4651.88
2019-05-15T07:24:54.903Z,4584.38
2019-05-15T07:25:54.874Z,4668.75
2019-05-15T07:26:54.874Z,4719.38
2019-05-15T07:27:54.852Z,4831.88
2019-05-15T07:28:54.863Z,4696.88
2019-05-15T07:29:54.852Z,4421.25
2019-05-15T07:30:54.905Z,4404.38
2019-05-15T07:31:54.814Z,4809.38
2019-05-15T07:32:54.832Z,4995.00
2019-05-15T07:33:54.842Z,4983.75
2019-05-15T07:34:54.785Z,4905.00
2019-05-15T07:35:54.799Z,4803.75
2019-05-15T07:36:54.772Z,4713.75
2019-05-15T07:37:54.771Z,4747.50
2019-05-15T07:38:54.747Z,4837.50
2019-05-15T07:39:54.758Z,4854.38
2019-05-15T07:41:00.114Z,4843.12
2019-05-15T07:41:57.705Z,4882.50
2019-05-15T07:42:54.802Z,5006.25
2019-05-15T07:43:54.713Z,5085.00
2019-05-15T07:46:03.610Z,4972.50
2019-05-15T07:47:03.593Z,5141.25
2019-05-15T07:48:03.593Z,5242.50
2019-05-15T07:49:03.619Z,5158.12
2019-05-15T07:50:03.571Z,5073.75
2019-05-15T07:51:03.555Z,4955.62
2019-05-15T07:52:03.555Z,4905.00
2019-05-15T07:53:03.799Z,4809.38
2019-05-15T07:54:03.552Z,4753.12
2019-05-15T07:55:03.512Z,4950.00
2019-05-15T07:56:03.516Z,4404.38
2019-05-15T07:57:03.487Z,4601.25
2019-05-15T07:58:03.503Z,2745.00
2019-05-15T07:59:03.486Z,4910.62
2019-05-15T08:00:03.481Z,3836.25
2019-05-15T08:02:19.262Z,4533.75
2019-05-15T08:03:19.243Z,5388.75
2019-05-15T08:04:28.846Z,3307.50
2019-05-15T08:05:20.203Z,4275.00
2019-05-15T08:06:19.192Z,4387.50
2019-05-15T08:07:19.184Z,4927.50
2019-05-15T08:08:19.180Z,4978.12
2019-05-15T08:09:19.152Z,4921.88
2019-05-15T08:10:19.162Z,4871.25
2019-05-15T08:11:23.938Z,4961.25
2019-05-15T08:12:20.155Z,5028.75
2019-05-15T08:13:19.121Z,4905.00
2019-05-15T08:14:19.110Z,4921.88
2019-05-15T08:15:19.112Z,5017.50
2019-05-15T08:16:19.090Z,5011.88
2019-05-15T08:17:21.881Z,4893.75
2019-05-15T08:18:19.071Z,4933.12
2019-05-15T08:19:19.081Z,5040.00
2019-05-15T08:20:19.059Z,4995.00
2019-05-15T08:21:19.041Z,4663.12
2019-05-15T08:22:19.049Z,4516.88
2019-05-15T08:23:19.565Z,4691.25
2019-05-15T08:24:19.172Z,4865.62
2019-05-15T08:25:31.050Z,5011.88
2019-05-15T08:26:19.999Z,4950.00
2019-05-15T08:27:19.174Z,4933.12
2019-05-15T08:28:19.428Z,4938.75
2019-05-15T08:29:21.620Z,5130.00
2019-05-15T08:30:18.948Z,5191.88
2019-05-15T08:31:18.967Z,5135.62
2019-05-15T08:32:19.174Z,5203.12
2019-05-15T08:33:19.077Z,5591.25
2019-05-15T08:34:19.729Z,6142.50
2019-05-15T08:35:19.276Z,6350.62
2019-05-15T08:36:18.879Z,6058.12
2019-05-15T08:37:18.897Z,5625.00
2019-05-15T08:38:18.877Z,5315.62
2019-05-15T08:39:19.150Z,5175.00
2019-05-15T08:40:18.849Z,5276.25
2019-05-15T08:41:18.837Z,5191.88
2019-05-15T08:42:19.024Z,5090.62
2019-05-15T08:43:18.848Z,5281.88
2019-05-15T08:44:18.882Z,5231.25
2019-05-15T08:45:19.067Z,5197.50
2019-05-15T08:46:18.886Z,5045.62
2019-05-15T08:47:19.359Z,4882.50
2019-05-15T08:48:18.816Z,4978.12
2019-05-15T08:49:20.285Z,4826.25
2019-05-15T08:50:18.746Z,4786.88
2019-05-15T08:51:19.421Z,4758.75
2019-05-15T08:52:19.065Z,4618.12
2019-05-15T08:53:19.318Z,4736.25
2019-05-15T08:54:18.714Z,4860.00
2019-05-15T08:55:20.187Z,4910.62
2019-05-15T08:56:19.381Z,4781.25
2019-05-15T08:57:20.326Z,4584.38
2019-05-15T08:58:20.127Z,4691.25
2019-05-15T08:59:18.919Z,4882.50
2019-05-15T09:00:18.750Z,4770.00
2019-05-15T09:01:18.634Z,4567.50
2019-05-15T09:02:18.726Z,4443.75
2019-05-15T09:03:18.655Z,4466.25
2019-05-15T09:04:30.157Z,4370.62
2019-05-15T09:05:19.594Z,3971.25
2019-05-15T09:06:22.756Z,3903.75
2019-05-15T09:07:18.562Z,4303.12
2019-05-15T09:08:19.596Z,4466.25
2019-05-15T09:09:18.574Z,4348.12
2019-05-15T09:10:18.609Z,4415.62
2019-05-15T09:11:19.235Z,4410.00
2019-05-15T09:12:18.987Z,4376.25
2019-05-15T09:13:19.154Z,4258.12
2019-05-15T09:14:18.678Z,2750.62
2019-05-15T09:15:18.616Z,922.50
2019-05-15T09:16:18.648Z,466.88
2019-05-15T09:17:18.482Z,433.12
2019-05-15T09:18:20.191Z,421.88
2019-05-15T09:19:18.575Z,410.62
2019-05-15T09:20:19.423Z,399.38
2019-05-15T09:21:19.131Z,399.38
2019-05-15T09:22:18.844Z,388.12
2019-05-15T09:23:19.582Z,382.50
2019-05-15T09:24:19.850Z,371.25
2019-05-15T09:25:19.446Z,365.62
2019-05-15T09:26:19.438Z,360.00
2019-05-15T09:27:18.546Z,348.75
2019-05-15T09:28:19.163Z,343.12
2019-05-15T09:29:18.493Z,337.50
2019-05-15T09:30:18.488Z,331.88
2019-05-15T09:31:19.285Z,331.88
2019-05-15T09:32:19.100Z,326.25
2019-05-15T09:33:19.973Z,326.25
2019-05-15T09:34:18.658Z,326.25
2019-05-15T09:35:18.744Z,326.25
2019-05-15T09:36:20.097Z,320.62
2019-05-15T09:37:18.266Z,326.25
2019-05-15T09:38:18.811Z,320.62
2019-05-15T09:39:18.537Z,315.00
2019-05-15T09:40:18.730Z,315.00
2019-05-15T09:41:18.219Z,309.38
2019-05-15T09:42:18.249Z,309.38
2019-05-15T09:43:18.453Z,303.75
2019-05-15T09:44:21.525Z,303.75
2019-05-15T09:45:18.196Z,303.75
2019-05-15T09:46:18.640Z,298.12
2019-05-15T09:47:18.800Z,292.50
2019-05-15T09:48:19.665Z,286.88
2019-05-15T09:49:18.361Z,286.88
2019-05-15T09:50:19.412Z,281.25
2019-05-15T09:51:18.458Z,281.25
2019-05-15T09:52:22.577Z,281.25
2019-05-15T09:53:18.884Z,270.00
2019-05-15T09:54:19.364Z,264.38
2019-05-15T09:55:18.216Z,258.75
2019-05-15T09:56:18.729Z,253.12
2019-05-15T09:57:18.787Z,241.88
2019-05-15T09:58:20.387Z,241.88
2019-05-15T09:59:18.757Z,236.25
2019-05-15T10:00:19.012Z,230.62
2019-05-15T10:01:19.593Z,230.62
2019-05-15T10:02:18.950Z,230.62
2019-05-15T10:03:19.004Z,225.00
2019-05-15T10:04:18.978Z,225.00
2019-05-15T10:05:18.963Z,225.00
2019-05-15T10:06:20.563Z,219.38
2019-05-15T10:07:19.310Z,219.38
2019-05-15T10:08:20.991Z,213.75
2019-05-15T10:09:18.906Z,213.75
2019-05-15T10:10:19.202Z,213.75
2019-05-15T10:11:19.602Z,213.75
2019-05-15T10:12:18.331Z,208.12
2019-05-15T10:13:18.844Z,213.75
2019-05-15T10:14:19.548Z,213.75
2019-05-15T10:15:18.559Z,208.12
2019-05-15T10:16:19.935Z,208.12
2019-05-15T10:17:18.502Z,208.12
2019-05-15T10:18:19.109Z,208.12
2019-05-15T10:19:18.509Z,208.12
2019-05-15T10:20:18.439Z,208.12
2019-05-15T10:21:18.686Z,208.12
2019-05-15T10:22:18.743Z,208.12
2019-05-15T10:23:19.455Z,208.12
2019-05-15T10:24:18.246Z,208.12
2019-05-15T10:25:19.061Z,208.12
2019-05-15T10:26:19.261Z,208.12
2019-05-15T10:27:18.092Z,202.50
2019-05-15T10:28:18.740Z,202.50
2019-05-15T10:29:17.703Z,202.50
2019-05-15T10:30:18.867Z,202.50
2019-05-15T10:31:19.531Z,202.50
2019-05-15T10:32:19.504Z,202.50
2019-05-15T10:33:19.554Z,202.50
2019-05-15T10:34:18.314Z,202.50
2019-05-15T10:35:27.465Z,202.50
2019-05-15T10:36:19.055Z,202.50
2019-05-15T10:37:18.588Z,196.88
2019-05-15T10:38:19.380Z,196.88
2019-05-15T10:39:18.199Z,196.88
2019-05-15T10:40:20.396Z,196.88
2019-05-15T10:41:18.805Z,196.88
2019-05-15T10:42:19.349Z,196.88
2019-05-15T10:43:20.500Z,196.88
2019-05-15T10:44:18.156Z,196.88
2019-05-15T10:45:19.280Z,196.88
2019-05-15T10:46:19.022Z,196.88
2019-05-15T10:47:17.512Z,196.88
2019-05-15T10:48:19.008Z,196.88
2019-05-15T10:49:18.960Z,191.25
2019-05-15T10:50:19.128Z,191.25
2019-05-15T10:51:19.462Z,191.25
2019-05-15T10:52:18.006Z,191.25
2019-05-15T10:53:18.709Z,191.25
2019-05-15T10:54:19.184Z,191.25
2019-05-15T10:55:18.924Z,191.25
2019-05-15T10:56:18.573Z,191.25
2019-05-15T10:57:18.951Z,191.25
2019-05-15T10:58:21.790Z,191.25
2019-05-15T10:59:18.479Z,191.25
2019-05-15T11:00:19.473Z,191.25
2019-05-15T11:01:19.280Z,185.62
2019-05-15T11:02:19.191Z,185.62
2019-05-15T11:03:19.827Z,185.62
2019-05-15T11:04:18.144Z,185.62
2019-05-15T11:05:18.027Z,185.62
2019-05-15T11:06:18.306Z,185.62
2019-05-15T11:07:19.447Z,185.62
2019-05-15T11:08:18.852Z,185.62
2019-05-15T11:09:18.592Z,185.62
2019-05-15T11:10:18.551Z,180.00
2019-05-15T11:11:18.346Z,185.62
2019-05-15T11:12:18.921Z,180.00
2019-05-15T11:13:18.648Z,180.00
2019-05-15T11:14:18.455Z,180.00
2019-05-15T11:15:18.481Z,180.00
2019-05-15T11:16:18.601Z,180.00
2019-05-15T11:17:17.205Z,180.00
2019-05-15T11:18:17.180Z,180.00
2019-05-15T11:19:17.186Z,180.00
2019-05-15T11:20:18.743Z,180.00
2019-05-15T11:21:19.066Z,180.00
2019-05-15T11:22:18.815Z,180.00
2019-05-15T11:23:19.770Z,180.00
2019-05-15T11:24:19.312Z,180.00
2019-05-15T11:25:17.109Z,180.00
2019-05-15T11:26:19.447Z,180.00
2019-05-15T11:27:19.023Z,180.00
2019-05-15T11:28:17.079Z,180.00
2019-05-15T11:29:17.077Z,180.00
2019-05-15T11:30:19.222Z,180.00
2019-05-15T11:31:17.029Z,174.38
2019-05-15T11:32:17.033Z,180.00
2019-05-15T11:33:18.949Z,180.00
2019-05-15T11:34:18.580Z,180.00
2019-05-15T11:35:18.656Z,180.00
2019-05-15T11:36:18.514Z,180.00
2019-05-15T11:37:18.886Z,180.00
2019-05-15T11:38:19.252Z,180.00
2019-05-15T11:39:18.266Z,174.38
2019-05-15T11:40:18.829Z,174.38
2019-05-15T11:41:19.195Z,174.38
2019-05-15T11:42:16.913Z,174.38
2019-05-15T11:43:19.704Z,174.38
2019-05-15T11:44:18.812Z,174.38
2019-05-15T11:45:18.565Z,174.38
2019-05-15T11:46:18.589Z,174.38
2019-05-15T11:47:18.422Z,174.38
2019-05-15T11:48:20.139Z,174.38
2019-05-15T11:49:18.279Z,174.38
2019-05-15T11:50:19.975Z,174.38
2019-05-15T11:51:18.414Z,174.38
2019-05-15T11:52:18.783Z,174.38
2019-05-15T11:53:19.161Z,174.38
2019-05-15T11:54:19.117Z,174.38
2019-05-15T11:55:16.782Z,174.38
2019-05-15T11:56:18.933Z,174.38
2019-05-15T11:57:19.040Z,174.38
2019-05-15T11:58:19.003Z,174.38
2019-05-15T11:59:18.414Z,174.38
2019-05-15T12:00:26.143Z,174.38
2019-05-15T12:01:19.090Z,174.38
2019-05-15T12:02:18.871Z,174.38
2019-05-15T12:03:18.875Z,174.38
2019-05-15T12:04:27.812Z,180.00
2019-05-15T12:05:18.260Z,180.00
2019-05-15T12:06:21.983Z,180.00
2019-05-15T12:07:18.182Z,180.00
2019-05-15T12:08:18.473Z,174.38
2019-05-15T12:09:18.745Z,174.38
2019-05-15T12:10:18.448Z,174.38
2019-05-15T12:11:31.726Z,168.75
2019-05-15T12:12:18.052Z,168.75
2019-05-15T12:13:19.006Z,174.38
2019-05-15T12:14:19.444Z,168.75
2019-05-15T12:15:18.700Z,168.75
2019-05-15T12:16:16.554Z,168.75
2019-05-15T12:17:18.818Z,168.75
2019-05-15T12:18:16.532Z,180.00
2019-05-15T12:19:17.520Z,168.75
2019-05-15T12:20:19.029Z,168.75
2019-05-15T12:21:19.736Z,168.75
2019-05-15T12:22:16.493Z,168.75
2019-05-15T12:23:16.480Z,168.75
2019-05-15T12:24:16.460Z,168.75
2019-05-15T12:25:16.529Z,168.75
2019-05-15T12:26:17.031Z,168.75
2019-05-15T12:27:18.452Z,168.75
2019-05-15T12:28:16.424Z,168.75
2019-05-15T12:29:16.419Z,168.75
2019-05-15T12:30:16.397Z,168.75
2019-05-15T12:31:16.379Z,168.75
2019-05-15T12:32:26.589Z,168.75
2019-05-15T12:33:18.371Z,168.75
2019-05-15T12:34:18.952Z,168.75
2019-05-15T12:35:16.342Z,168.75
2019-05-15T12:37:19.312Z,168.75
2019-05-15T12:37:59.047Z,168.75
2019-05-15T12:38:18.597Z,168.75
2019-05-15T12:39:21.802Z,163.12
2019-05-15T13:00:18.606Z,163.12
2019-05-15T13:01:18.481Z,163.12
2019-05-15T13:02:18.711Z,163.12
2019-05-15T13:03:18.114Z,163.12